sensor_id;sensor_type;location;lat;lon;timestamp;temperature;humidity
27506;DHT22;14939;43.596;1.320;2024-02-15T00:02:15;12.40;99.90
27506;DHT22;14939;43.596;1.320;2024-02-15T00:04:40;12.30;99.90
27506;DHT22;14939;43.596;1.320;2024-02-15T00:07:08;12.20;99.90
27506;DHT22;14939;43.596;1.320;2024-02-15T00:09:34;12.20;99.90
27506;DHT22;14939;43.596;1.320;2024-02-15T00:11:59;12.20;99.90
27506;DHT22;14939;43.596;1.320;2024-02-15T00:14:26;12.20;99.90
27506;DHT22;14939;43.596;1.320;2024-02-15T00:16:53;12.20;99.90
27506;DHT22;14939;43.596;1.320;2024-02-15T00:19:18;12.20;99.90
27506;DHT22;14939;43.596;1.320;2024-02-15T00:21:44;12.20;99.90
27506;DHT22;14939;43.596;1.320;2024-02-15T00:24:10;12.20;99.90
27506;DHT22;14939;43.596;1.320;2024-02-15T00:26:36;12.20;99.90
27506;DHT22;14939;43.596;1.320;2024-02-15T00:29:02;12.20;99.90
27506;DHT22;14939;43.596;1.320;2024-02-15T00:31:28;12.20;99.90
27506;DHT22;14939;43.596;1.320;2024-02-15T00:33:53;12.10;99.90
27506;DHT22;14939;43.596;1.320;2024-02-15T00:36:19;12.10;99.90
27506;DHT22;14939;43.596;1.320;2024-02-15T00:38:45;12.10;99.90
27506;DHT22;14939;43.596;1.320;2024-02-15T00:41:10;12.00;99.90
27506;DHT22;14939;43.596;1.320;2024-02-15T00:43:36;12.00;99.90
27506;DHT22;14939;43.596;1.320;2024-02-15T00:46:02;11.90;99.90
27506;DHT22;14939;43.596;1.320;2024-02-15T00:48:28;11.90;99.90
27506;DHT22;14939;43.596;1.320;2024-02-15T00:50:57;11.80;99.90
27506;DHT22;14939;43.596;1.320;2024-02-15T00:53:23;11.70;99.90
27506;DHT22;14939;43.596;1.320;2024-02-15T00:55:49;11.70;99.90
27506;DHT22;14939;43.596;1.320;2024-02-15T00:58:14;11.70;99.90
27506;DHT22;14939;43.596;1.320;2024-02-15T01:00:40;11.70;99.90
27506;DHT22;14939;43.596;1.320;2024-02-15T01:03:05;11.70;99.90
27506;DHT22;14939;43.596;1.320;2024-02-15T01:05:31;11.70;99.90
27506;DHT22;14939;43.596;1.320;2024-02-15T01:07:57;11.70;99.90
27506;DHT22;14939;43.596;1.320;2024-02-15T01:10:23;11.70;99.90
27506;DHT22;14939;43.596;1.320;2024-02-15T01:12:52;11.70;99.90
27506;DHT22;14939;43.596;1.320;2024-02-15T01:15:18;11.60;99.90
27506;DHT22;14939;43.596;1.320;2024-02-15T01:17:45;11.60;99.90
27506;DHT22;14939;43.596;1.320;2024-02-15T01:20:11;11.60;99.90
27506;DHT22;14939;43.596;1.320;2024-02-15T01:22:37;11.60;99.90
27506;DHT22;14939;43.596;1.320;2024-02-15T01:25:03;11.60;99.90
27506;DHT22;14939;43.596;1.320;2024-02-15T01:27:29;11.70;99.90
27506;DHT22;14939;43.596;1.320;2024-02-15T01:29:56;11.70;99.90
27506;DHT22;14939;43.596;1.320;2024-02-15T01:32:21;11.70;99.90
27506;DHT22;14939;43.596;1.320;2024-02-15T01:34:47;11.70;99.90
27506;DHT22;14939;43.596;1.320;2024-02-15T01:37:13;11.60;99.90
27506;DHT22;14939;43.596;1.320;2024-02-15T01:39:38;11.60;99.90
27506;DHT22;14939;43.596;1.320;2024-02-15T01:42:04;11.60;99.90
27506;DHT22;14939;43.596;1.320;2024-02-15T01:44:30;11.50;99.90
27506;DHT22;14939;43.596;1.320;2024-02-15T01:46:56;11.50;99.90
27506;DHT22;14939;43.596;1.320;2024-02-15T01:49:22;11.50;99.90
27506;DHT22;14939;43.596;1.320;2024-02-15T01:51:50;11.50;99.90
27506;DHT22;14939;43.596;1.320;2024-02-15T01:54:18;11.50;99.90
27506;DHT22;14939;43.596;1.320;2024-02-15T01:56:44;11.50;99.90
27506;DHT22;14939;43.596;1.320;2024-02-15T01:59:12;11.50;99.90
27506;DHT22;14939;43.596;1.320;2024-02-15T02:01:39;11.50;99.90
27506;DHT22;14939;43.596;1.320;2024-02-15T02:04:05;11.50;99.90
27506;DHT22;14939;43.596;1.320;2024-02-15T02:06:30;11.50;99.90
27506;DHT22;14939;43.596;1.320;2024-02-15T02:08:57;11.50;99.90
27506;DHT22;14939;43.596;1.320;2024-02-15T02:11:23;11.50;99.90
27506;DHT22;14939;43.596;1.320;2024-02-15T02:13:49;11.50;99.90
27506;DHT22;14939;43.596;1.320;2024-02-15T02:16:30;11.50;99.90
27506;DHT22;14939;43.596;1.320;2024-02-15T02:19:01;11.50;99.90
27506;DHT22;14939;43.596;1.320;2024-02-15T02:21:27;11.40;99.90
27506;DHT22;14939;43.596;1.320;2024-02-15T02:23:56;11.50;99.90
27506;DHT22;14939;43.596;1.320;2024-02-15T02:26:22;11.40;99.90
27506;DHT22;14939;43.596;1.320;2024-02-15T02:28:49;11.40;99.90
27506;DHT22;14939;43.596;1.320;2024-02-15T02:31:14;11.40;99.90
27506;DHT22;14939;43.596;1.320;2024-02-15T02:33:41;11.40;99.90
27506;DHT22;14939;43.596;1.320;2024-02-15T02:36:07;11.40;99.90
27506;DHT22;14939;43.596;1.320;2024-02-15T02:38:35;11.40;99.90
27506;DHT22;14939;43.596;1.320;2024-02-15T02:41:04;11.40;99.90
27506;DHT22;14939;43.596;1.320;2024-02-15T02:43:29;11.40;99.90
27506;DHT22;14939;43.596;1.320;2024-02-15T02:45:55;11.40;99.90
27506;DHT22;14939;43.596;1.320;2024-02-15T02:48:21;11.40;99.90
27506;DHT22;14939;43.596;1.320;2024-02-15T02:50:48;11.40;99.90
27506;DHT22;14939;43.596;1.320;2024-02-15T02:53:14;11.40;99.90
27506;DHT22;14939;43.596;1.320;2024-02-15T02:55:41;11.50;99.90
27506;DHT22;14939;43.596;1.320;2024-02-15T02:58:08;11.50;99.90
27506;DHT22;14939;43.596;1.320;2024-02-15T03:00:34;11.50;99.90
27506;DHT22;14939;43.596;1.320;2024-02-15T03:03:00;11.50;99.90
27506;DHT22;14939;43.596;1.320;2024-02-15T03:05:26;11.50;99.90
27506;DHT22;14939;43.596;1.320;2024-02-15T03:07:52;11.50;99.90
27506;DHT22;14939;43.596;1.320;2024-02-15T03:10:18;11.40;99.90
27506;DHT22;14939;43.596;1.320;2024-02-15T03:12:44;11.40;99.90
27506;DHT22;14939;43.596;1.320;2024-02-15T03:15:13;11.40;99.90
27506;DHT22;14939;43.596;1.320;2024-02-15T03:17:43;11.40;99.90
27506;DHT22;14939;43.596;1.320;2024-02-15T03:20:10;11.40;99.90
27506;DHT22;14939;43.596;1.320;2024-02-15T03:22:52;11.30;99.90
27506;DHT22;14939;43.596;1.320;2024-02-15T03:25:19;11.30;99.90
27506;DHT22;14939;43.596;1.320;2024-02-15T03:27:44;11.30;99.90
27506;DHT22;14939;43.596;1.320;2024-02-15T03:30:11;11.30;99.90
27506;DHT22;14939;43.596;1.320;2024-02-15T03:32:37;11.30;99.90
27506;DHT22;14939;43.596;1.320;2024-02-15T03:35:03;11.30;99.90
27506;DHT22;14939;43.596;1.320;2024-02-15T03:37:29;11.30;99.90
27506;DHT22;14939;43.596;1.320;2024-02-15T03:39:54;11.20;99.90
27506;DHT22;14939;43.596;1.320;2024-02-15T03:42:20;11.20;99.90
27506;DHT22;14939;43.596;1.320;2024-02-15T03:44:46;11.10;99.90
27506;DHT22;14939;43.596;1.320;2024-02-15T03:47:13;11.10;99.90
27506;DHT22;14939;43.596;1.320;2024-02-15T03:49:41;11.10;99.90
27506;DHT22;14939;43.596;1.320;2024-02-15T03:52:08;11.00;99.90
27506;DHT22;14939;43.596;1.320;2024-02-15T03:54:36;11.00;99.90
27506;DHT22;14939;43.596;1.320;2024-02-15T03:57:02;11.00;99.90
27506;DHT22;14939;43.596;1.320;2024-02-15T03:59:27;11.00;99.90
27506;DHT22;14939;43.596;1.320;2024-02-15T04:01:53;11.00;99.90
27506;DHT22;14939;43.596;1.320;2024-02-15T04:04:20;11.00;99.90
27506;DHT22;14939;43.596;1.320;2024-02-15T04:06:51;11.10;99.90
27506;DHT22;14939;43.596;1.320;2024-02-15T04:09:18;11.10;99.90
27506;DHT22;14939;43.596;1.320;2024-02-15T04:11:44;11.10;99.90
27506;DHT22;14939;43.596;1.320;2024-02-15T04:14:12;11.10;99.90
27506;DHT22;14939;43.596;1.320;2024-02-15T04:16:38;11.20;99.90
27506;DHT22;14939;43.596;1.320;2024-02-15T04:19:04;11.20;99.90
27506;DHT22;14939;43.596;1.320;2024-02-15T04:21:29;11.20;99.90
27506;DHT22;14939;43.596;1.320;2024-02-15T04:23:56;11.20;99.90
27506;DHT22;14939;43.596;1.320;2024-02-15T04:26:21;11.20;99.90
27506;DHT22;14939;43.596;1.320;2024-02-15T04:28:54;11.20;99.90
27506;DHT22;14939;43.596;1.320;2024-02-15T04:31:20;11.20;99.90
27506;DHT22;14939;43.596;1.320;2024-02-15T04:33:57;11.20;99.90
27506;DHT22;14939;43.596;1.320;2024-02-15T04:36:24;11.20;99.90
27506;DHT22;14939;43.596;1.320;2024-02-15T04:38:51;11.20;99.90
27506;DHT22;14939;43.596;1.320;2024-02-15T04:41:20;11.20;99.90
27506;DHT22;14939;43.596;1.320;2024-02-15T04:43:51;11.20;99.90
27506;DHT22;14939;43.596;1.320;2024-02-15T04:46:18;11.20;99.90
27506;DHT22;14939;43.596;1.320;2024-02-15T04:48:47;11.20;99.90
27506;DHT22;14939;43.596;1.320;2024-02-15T04:51:15;11.20;99.90
27506;DHT22;14939;43.596;1.320;2024-02-15T04:53:40;11.20;99.90
27506;DHT22;14939;43.596;1.320;2024-02-15T04:56:06;11.20;99.90
27506;DHT22;14939;43.596;1.320;2024-02-15T04:58:37;11.20;99.90
27506;DHT22;14939;43.596;1.320;2024-02-15T05:01:04;11.20;99.90
27506;DHT22;14939;43.596;1.320;2024-02-15T05:03:31;11.20;99.90
27506;DHT22;14939;43.596;1.320;2024-02-15T05:06:00;11.20;99.90
27506;DHT22;14939;43.596;1.320;2024-02-15T05:08:26;11.20;99.90
27506;DHT22;14939;43.596;1.320;2024-02-15T05:10:51;11.20;99.90
27506;DHT22;14939;43.596;1.320;2024-02-15T05:13:23;11.20;99.90
27506;DHT22;14939;43.596;1.320;2024-02-15T05:15:49;11.20;99.90
27506;DHT22;14939;43.596;1.320;2024-02-15T05:18:15;11.20;99.90
27506;DHT22;14939;43.596;1.320;2024-02-15T05:20:42;11.10;99.90
27506;DHT22;14939;43.596;1.320;2024-02-15T05:23:08;11.10;99.90
27506;DHT22;14939;43.596;1.320;2024-02-15T05:25:34;11.10;99.90
27506;DHT22;14939;43.596;1.320;2024-02-15T05:28:01;11.10;99.90
27506;DHT22;14939;43.596;1.320;2024-02-15T05:30:27;11.10;99.90
27506;DHT22;14939;43.596;1.320;2024-02-15T05:32:53;11.10;99.90
27506;DHT22;14939;43.596;1.320;2024-02-15T05:35:18;11.10;99.90
27506;DHT22;14939;43.596;1.320;2024-02-15T05:37:44;11.10;99.90
27506;DHT22;14939;43.596;1.320;2024-02-15T05:40:11;11.20;99.90
27506;DHT22;14939;43.596;1.320;2024-02-15T05:42:43;11.10;99.90
27506;DHT22;14939;43.596;1.320;2024-02-15T05:45:28;11.20;99.90
27506;DHT22;14939;43.596;1.320;2024-02-15T05:47:55;11.20;99.90
27506;DHT22;14939;43.596;1.320;2024-02-15T05:50:21;11.20;99.90
27506;DHT22;14939;43.596;1.320;2024-02-15T05:52:47;11.20;99.90
27506;DHT22;14939;43.596;1.320;2024-02-15T05:55:13;11.20;99.90
27506;DHT22;14939;43.596;1.320;2024-02-15T05:57:43;11.20;99.90
27506;DHT22;14939;43.596;1.320;2024-02-15T06:00:10;11.30;99.90
27506;DHT22;14939;43.596;1.320;2024-02-15T06:02:35;11.30;99.90
27506;DHT22;14939;43.596;1.320;2024-02-15T06:05:01;11.30;99.90
27506;DHT22;14939;43.596;1.320;2024-02-15T06:07:32;11.30;99.90
27506;DHT22;14939;43.596;1.320;2024-02-15T06:09:58;11.30;99.90
27506;DHT22;14939;43.596;1.320;2024-02-15T06:12:28;11.30;99.90
27506;DHT22;14939;43.596;1.320;2024-02-15T06:14:54;11.30;99.90
27506;DHT22;14939;43.596;1.320;2024-02-15T06:17:20;11.30;99.90
27506;DHT22;14939;43.596;1.320;2024-02-15T06:19:45;11.40;99.90
27506;DHT22;14939;43.596;1.320;2024-02-15T06:22:11;11.40;99.90
27506;DHT22;14939;43.596;1.320;2024-02-15T06:24:38;11.40;99.90
27506;DHT22;14939;43.596;1.320;2024-02-15T06:27:04;11.40;99.90
27506;DHT22;14939;43.596;1.320;2024-02-15T06:29:29;11.40;99.90
27506;DHT22;14939;43.596;1.320;2024-02-15T06:32:14;11.40;99.90
27506;DHT22;14939;43.596;1.320;2024-02-15T06:34:58;11.40;99.90
27506;DHT22;14939;43.596;1.320;2024-02-15T06:37:42;11.40;99.90
27506;DHT22;14939;43.596;1.320;2024-02-15T06:40:26;11.40;99.90
27506;DHT22;14939;43.596;1.320;2024-02-15T06:42:52;11.40;99.90
27506;DHT22;14939;43.596;1.320;2024-02-15T06:45:18;11.40;99.90
27506;DHT22;14939;43.596;1.320;2024-02-15T06:47:44;11.40;99.90
27506;DHT22;14939;43.596;1.320;2024-02-15T06:50:13;11.40;99.90
27506;DHT22;14939;43.596;1.320;2024-02-15T06:52:39;11.50;99.90
27506;DHT22;14939;43.596;1.320;2024-02-15T06:55:09;11.50;99.90
27506;DHT22;14939;43.596;1.320;2024-02-15T06:57:40;11.50;99.90
27506;DHT22;14939;43.596;1.320;2024-02-15T07:00:07;11.50;99.90
27506;DHT22;14939;43.596;1.320;2024-02-15T07:02:34;11.50;99.90
27506;DHT22;14939;43.596;1.320;2024-02-15T07:05:00;11.50;99.90
27506;DHT22;14939;43.596;1.320;2024-02-15T07:07:26;11.60;99.90
27506;DHT22;14939;43.596;1.320;2024-02-15T07:09:52;11.60;99.90
27506;DHT22;14939;43.596;1.320;2024-02-15T07:12:18;11.60;99.90
27506;DHT22;14939;43.596;1.320;2024-02-15T07:14:45;11.60;99.90
27506;DHT22;14939;43.596;1.320;2024-02-15T07:17:12;11.60;99.90
27506;DHT22;14939;43.596;1.320;2024-02-15T07:19:37;11.70;99.90
27506;DHT22;14939;43.596;1.320;2024-02-15T07:22:06;11.70;99.90
27506;DHT22;14939;43.596;1.320;2024-02-15T07:24:32;11.70;99.90
27506;DHT22;14939;43.596;1.320;2024-02-15T07:26:59;11.70;99.90
27506;DHT22;14939;43.596;1.320;2024-02-15T07:29:25;11.70;99.90
27506;DHT22;14939;43.596;1.320;2024-02-15T07:31:50;11.80;99.90
27506;DHT22;14939;43.596;1.320;2024-02-15T07:34:16;11.80;99.90
27506;DHT22;14939;43.596;1.320;2024-02-15T07:36:42;11.90;99.90
27506;DHT22;14939;43.596;1.320;2024-02-15T07:39:09;11.90;99.90
27506;DHT22;14939;43.596;1.320;2024-02-15T07:41:38;12.00;99.90
27506;DHT22;14939;43.596;1.320;2024-02-15T07:44:04;12.00;99.90
27506;DHT22;14939;43.596;1.320;2024-02-15T07:46:30;12.10;99.90
27506;DHT22;14939;43.596;1.320;2024-02-15T07:48:55;12.10;99.90
27506;DHT22;14939;43.596;1.320;2024-02-15T07:51:22;12.10;99.90
27506;DHT22;14939;43.596;1.320;2024-02-15T07:53:48;12.20;99.90
27506;DHT22;14939;43.596;1.320;2024-02-15T07:56:16;12.20;99.90
27506;DHT22;14939;43.596;1.320;2024-02-15T07:58:46;12.30;99.90
27506;DHT22;14939;43.596;1.320;2024-02-15T08:01:15;12.40;99.90
27506;DHT22;14939;43.596;1.320;2024-02-15T08:03:41;12.40;99.90
27506;DHT22;14939;43.596;1.320;2024-02-15T08:06:14;12.40;99.90
27506;DHT22;14939;43.596;1.320;2024-02-15T08:08:44;12.50;99.90
27506;DHT22;14939;43.596;1.320;2024-02-15T08:11:16;12.50;99.90
27506;DHT22;14939;43.596;1.320;2024-02-15T08:13:49;12.50;99.90
27506;DHT22;14939;43.596;1.320;2024-02-15T08:16:18;12.50;99.90
27506;DHT22;14939;43.596;1.320;2024-02-15T08:18:44;12.50;99.90
27506;DHT22;14939;43.596;1.320;2024-02-15T08:21:12;12.50;99.90
27506;DHT22;14939;43.596;1.320;2024-02-15T08:23:37;12.60;99.90
27506;DHT22;14939;43.596;1.320;2024-02-15T08:26:03;12.60;99.90
27506;DHT22;14939;43.596;1.320;2024-02-15T08:28:29;12.60;99.90
27506;DHT22;14939;43.596;1.320;2024-02-15T08:30:55;12.70;99.90
27506;DHT22;14939;43.596;1.320;2024-02-15T08:33:24;12.80;99.90
27506;DHT22;14939;43.596;1.320;2024-02-15T08:35:50;12.80;99.90
27506;DHT22;14939;43.596;1.320;2024-02-15T08:38:16;12.80;99.90
27506;DHT22;14939;43.596;1.320;2024-02-15T08:40:42;12.80;99.90
27506;DHT22;14939;43.596;1.320;2024-02-15T08:43:11;12.80;99.90
27506;DHT22;14939;43.596;1.320;2024-02-15T08:45:37;12.80;99.90
27506;DHT22;14939;43.596;1.320;2024-02-15T08:48:03;12.90;99.90
27506;DHT22;14939;43.596;1.320;2024-02-15T08:50:30;12.90;99.90
27506;DHT22;14939;43.596;1.320;2024-02-15T08:52:55;12.90;99.90
27506;DHT22;14939;43.596;1.320;2024-02-15T08:55:22;13.00;99.90
27506;DHT22;14939;43.596;1.320;2024-02-15T08:57:52;13.00;99.90
27506;DHT22;14939;43.596;1.320;2024-02-15T09:00:18;13.10;99.90
27506;DHT22;14939;43.596;1.320;2024-02-15T09:02:47;13.30;99.90
27506;DHT22;14939;43.596;1.320;2024-02-15T09:05:13;13.50;99.90
27506;DHT22;14939;43.596;1.320;2024-02-15T09:07:44;13.80;99.90
27506;DHT22;14939;43.596;1.320;2024-02-15T09:10:13;13.80;99.90
27506;DHT22;14939;43.596;1.320;2024-02-15T09:12:41;13.80;99.90
27506;DHT22;14939;43.596;1.320;2024-02-15T09:15:08;13.70;99.90
27506;DHT22;14939;43.596;1.320;2024-02-15T09:17:35;13.70;99.90
27506;DHT22;14939;43.596;1.320;2024-02-15T09:20:14;13.70;99.90
27506;DHT22;14939;43.596;1.320;2024-02-15T09:25:07;13.80;99.90
27506;DHT22;14939;43.596;1.320;2024-02-15T09:27:33;13.80;99.90
27506;DHT22;14939;43.596;1.320;2024-02-15T09:29:59;13.80;99.90
27506;DHT22;14939;43.596;1.320;2024-02-15T09:32:24;13.90;99.90
27506;DHT22;14939;43.596;1.320;2024-02-15T09:34:50;13.90;99.90
27506;DHT22;14939;43.596;1.320;2024-02-15T09:37:16;14.10;99.90
27506;DHT22;14939;43.596;1.320;2024-02-15T09:39:41;14.20;99.90
27506;DHT22;14939;43.596;1.320;2024-02-15T09:42:07;14.30;99.90
27506;DHT22;14939;43.596;1.320;2024-02-15T09:44:33;14.40;99.90
27506;DHT22;14939;43.596;1.320;2024-02-15T09:47:06;14.50;99.90
27506;DHT22;14939;43.596;1.320;2024-02-15T09:49:38;14.50;99.90
27506;DHT22;14939;43.596;1.320;2024-02-15T09:52:08;14.60;99.90
27506;DHT22;14939;43.596;1.320;2024-02-15T09:54:42;14.70;99.90
27506;DHT22;14939;43.596;1.320;2024-02-15T09:57:09;14.90;99.90
27506;DHT22;14939;43.596;1.320;2024-02-15T09:59:36;15.10;99.90
27506;DHT22;14939;43.596;1.320;2024-02-15T10:02:02;15.20;99.90
27506;DHT22;14939;43.596;1.320;2024-02-15T10:04:28;15.20;99.90
27506;DHT22;14939;43.596;1.320;2024-02-15T10:06:53;15.00;99.90
27506;DHT22;14939;43.596;1.320;2024-02-15T10:09:30;15.10;99.90
27506;DHT22;14939;43.596;1.320;2024-02-15T10:12:00;15.10;99.90
27506;DHT22;14939;43.596;1.320;2024-02-15T10:14:27;15.20;99.90
27506;DHT22;14939;43.596;1.320;2024-02-15T10:16:54;15.30;99.90
27506;DHT22;14939;43.596;1.320;2024-02-15T10:19:20;15.40;99.90
27506;DHT22;14939;43.596;1.320;2024-02-15T10:21:52;15.60;99.90
27506;DHT22;14939;43.596;1.320;2024-02-15T10:24:22;15.60;99.90
27506;DHT22;14939;43.596;1.320;2024-02-15T10:26:49;15.40;99.90
27506;DHT22;14939;43.596;1.320;2024-02-15T10:29:16;15.30;99.90
27506;DHT22;14939;43.596;1.320;2024-02-15T10:32:02;15.40;99.90
27506;DHT22;14939;43.596;1.320;2024-02-15T10:34:28;15.40;99.90
27506;DHT22;14939;43.596;1.320;2024-02-15T10:37:14;15.40;99.90
27506;DHT22;14939;43.596;1.320;2024-02-15T10:39:42;15.50;99.90
27506;DHT22;14939;43.596;1.320;2024-02-15T10:42:08;15.60;99.90
27506;DHT22;14939;43.596;1.320;2024-02-15T10:44:37;15.60;99.90
27506;DHT22;14939;43.596;1.320;2024-02-15T10:47:07;15.70;99.90
27506;DHT22;14939;43.596;1.320;2024-02-15T10:49:34;15.80;99.90
27506;DHT22;14939;43.596;1.320;2024-02-15T10:52:01;15.90;99.90
27506;DHT22;14939;43.596;1.320;2024-02-15T10:54:42;15.90;99.90
27506;DHT22;14939;43.596;1.320;2024-02-15T10:57:10;15.90;99.90
27506;DHT22;14939;43.596;1.320;2024-02-15T10:59:49;15.80;99.90
27506;DHT22;14939;43.596;1.320;2024-02-15T11:02:29;15.80;99.90
27506;DHT22;14939;43.596;1.320;2024-02-15T11:04:58;15.60;99.90
27506;DHT22;14939;43.596;1.320;2024-02-15T11:07:25;15.60;99.90
27506;DHT22;14939;43.596;1.320;2024-02-15T11:09:54;15.60;99.90
27506;DHT22;14939;43.596;1.320;2024-02-15T11:12:26;15.70;99.90
27506;DHT22;14939;43.596;1.320;2024-02-15T11:14:52;15.60;99.90
27506;DHT22;14939;43.596;1.320;2024-02-15T11:20:05;15.50;99.90
27506;DHT22;14939;43.596;1.320;2024-02-15T11:22:35;15.60;99.90
27506;DHT22;14939;43.596;1.320;2024-02-15T11:25:05;15.50;99.90
27506;DHT22;14939;43.596;1.320;2024-02-15T11:27:38;15.50;99.90
27506;DHT22;14939;43.596;1.320;2024-02-15T11:30:05;15.30;99.90
27506;DHT22;14939;43.596;1.320;2024-02-15T11:32:48;15.30;99.90
27506;DHT22;14939;43.596;1.320;2024-02-15T11:35:22;15.40;99.90
27506;DHT22;14939;43.596;1.320;2024-02-15T11:40:21;15.50;99.90
27506;DHT22;14939;43.596;1.320;2024-02-15T11:42:49;15.90;99.90
27506;DHT22;14939;43.596;1.320;2024-02-15T11:45:16;16.10;99.90
27506;DHT22;14939;43.596;1.320;2024-02-15T11:47:50;16.20;99.90
27506;DHT22;14939;43.596;1.320;2024-02-15T11:50:20;16.30;99.90
27506;DHT22;14939;43.596;1.320;2024-02-15T11:52:49;16.20;99.90
27506;DHT22;14939;43.596;1.320;2024-02-15T11:55:18;16.20;99.90
27506;DHT22;14939;43.596;1.320;2024-02-15T11:57:57;16.30;99.90
27506;DHT22;14939;43.596;1.320;2024-02-15T12:00:38;16.40;99.90
27506;DHT22;14939;43.596;1.320;2024-02-15T12:03:23;16.10;99.90
27506;DHT22;14939;43.596;1.320;2024-02-15T12:06:08;15.90;99.90
27506;DHT22;14939;43.596;1.320;2024-02-15T12:08:53;15.80;99.90
27506;DHT22;14939;43.596;1.320;2024-02-15T12:11:39;15.70;99.90
27506;DHT22;14939;43.596;1.320;2024-02-15T12:14:23;15.80;99.90
27506;DHT22;14939;43.596;1.320;2024-02-15T12:17:09;15.90;99.90
27506;DHT22;14939;43.596;1.320;2024-02-15T12:19:56;15.90;99.90
27506;DHT22;14939;43.596;1.320;2024-02-15T12:22:40;16.00;99.90
27506;DHT22;14939;43.596;1.320;2024-02-15T12:25:07;16.10;99.90
27506;DHT22;14939;43.596;1.320;2024-02-15T12:27:43;16.40;99.90
27506;DHT22;14939;43.596;1.320;2024-02-15T12:30:17;16.60;99.90
27506;DHT22;14939;43.596;1.320;2024-02-15T12:32:51;16.70;99.90
27506;DHT22;14939;43.596;1.320;2024-02-15T12:35:21;17.00;99.90
27506;DHT22;14939;43.596;1.320;2024-02-15T12:38:01;17.20;99.90
27506;DHT22;14939;43.596;1.320;2024-02-15T12:40:35;17.40;99.90
27506;DHT22;14939;43.596;1.320;2024-02-15T12:43:02;17.60;99.90
27506;DHT22;14939;43.596;1.320;2024-02-15T12:45:32;17.60;99.90
27506;DHT22;14939;43.596;1.320;2024-02-15T12:47:58;17.50;99.90
27506;DHT22;14939;43.596;1.320;2024-02-15T12:50:27;17.30;99.90
27506;DHT22;14939;43.596;1.320;2024-02-15T12:52:54;17.00;99.90
27506;DHT22;14939;43.596;1.320;2024-02-15T12:55:22;16.70;99.90
27506;DHT22;14939;43.596;1.320;2024-02-15T12:57:51;16.50;99.90
27506;DHT22;14939;43.596;1.320;2024-02-15T13:00:18;16.40;99.90
27506;DHT22;14939;43.596;1.320;2024-02-15T13:02:45;16.30;99.90
27506;DHT22;14939;43.596;1.320;2024-02-15T13:05:11;16.30;99.90
27506;DHT22;14939;43.596;1.320;2024-02-15T13:07:37;16.30;99.90
27506;DHT22;14939;43.596;1.320;2024-02-15T13:10:04;16.40;99.90
27506;DHT22;14939;43.596;1.320;2024-02-15T13:12:34;16.30;99.90
27506;DHT22;14939;43.596;1.320;2024-02-15T13:15:04;16.20;99.90
27506;DHT22;14939;43.596;1.320;2024-02-15T13:17:32;16.30;99.90
27506;DHT22;14939;43.596;1.320;2024-02-15T13:19:59;16.40;99.90
27506;DHT22;14939;43.596;1.320;2024-02-15T13:22:31;16.40;99.90
27506;DHT22;14939;43.596;1.320;2024-02-15T13:24:57;16.30;99.90
27506;DHT22;14939;43.596;1.320;2024-02-15T13:27:23;16.30;99.90
27506;DHT22;14939;43.596;1.320;2024-02-15T13:29:50;16.20;99.90
27506;DHT22;14939;43.596;1.320;2024-02-15T13:32:15;16.30;99.90
27506;DHT22;14939;43.596;1.320;2024-02-15T13:34:49;16.30;99.90
27506;DHT22;14939;43.596;1.320;2024-02-15T13:37:18;16.30;99.90
27506;DHT22;14939;43.596;1.320;2024-02-15T13:39:48;16.40;99.90
27506;DHT22;14939;43.596;1.320;2024-02-15T13:42:14;16.50;99.90
27506;DHT22;14939;43.596;1.320;2024-02-15T13:44:40;16.30;99.90
27506;DHT22;14939;43.596;1.320;2024-02-15T13:47:06;16.30;99.90
27506;DHT22;14939;43.596;1.320;2024-02-15T13:49:31;16.10;99.90
27506;DHT22;14939;43.596;1.320;2024-02-15T13:52:00;15.90;99.90
27506;DHT22;14939;43.596;1.320;2024-02-15T13:54:30;15.70;99.90
27506;DHT22;14939;43.596;1.320;2024-02-15T13:56:56;15.40;99.90
27506;DHT22;14939;43.596;1.320;2024-02-15T13:59:22;15.40;99.90
27506;DHT22;14939;43.596;1.320;2024-02-15T14:01:49;15.40;99.90
27506;DHT22;14939;43.596;1.320;2024-02-15T14:04:15;15.30;99.90
27506;DHT22;14939;43.596;1.320;2024-02-15T14:06:43;15.30;99.90
27506;DHT22;14939;43.596;1.320;2024-02-15T14:09:10;15.20;99.90
27506;DHT22;14939;43.596;1.320;2024-02-15T14:11:37;15.10;99.90
27506;DHT22;14939;43.596;1.320;2024-02-15T14:14:04;15.10;99.90
27506;DHT22;14939;43.596;1.320;2024-02-15T14:16:30;15.00;99.90
27506;DHT22;14939;43.596;1.320;2024-02-15T14:18:56;15.10;99.90
27506;DHT22;14939;43.596;1.320;2024-02-15T14:21:22;15.20;99.90
27506;DHT22;14939;43.596;1.320;2024-02-15T14:23:48;15.40;99.90
27506;DHT22;14939;43.596;1.320;2024-02-15T14:26:15;15.50;99.90
27506;DHT22;14939;43.596;1.320;2024-02-15T14:28:41;15.70;99.90
27506;DHT22;14939;43.596;1.320;2024-02-15T14:31:09;15.70;99.90
27506;DHT22;14939;43.596;1.320;2024-02-15T14:33:53;15.80;99.90
27506;DHT22;14939;43.596;1.320;2024-02-15T14:36:19;15.90;99.90
27506;DHT22;14939;43.596;1.320;2024-02-15T14:38:45;15.80;99.90
27506;DHT22;14939;43.596;1.320;2024-02-15T14:41:12;15.80;99.90
27506;DHT22;14939;43.596;1.320;2024-02-15T14:43:38;15.70;99.90
27506;DHT22;14939;43.596;1.320;2024-02-15T14:46:04;15.80;99.90
27506;DHT22;14939;43.596;1.320;2024-02-15T14:48:34;15.80;99.90
27506;DHT22;14939;43.596;1.320;2024-02-15T14:51:00;15.70;99.90
27506;DHT22;14939;43.596;1.320;2024-02-15T14:53:26;15.80;99.90
27506;DHT22;14939;43.596;1.320;2024-02-15T14:55:53;16.00;99.90
27506;DHT22;14939;43.596;1.320;2024-02-15T14:58:20;16.20;99.90
27506;DHT22;14939;43.596;1.320;2024-02-15T15:00:45;16.10;99.90
27506;DHT22;14939;43.596;1.320;2024-02-15T15:03:11;16.10;99.90
27506;DHT22;14939;43.596;1.320;2024-02-15T15:05:42;16.10;99.90
27506;DHT22;14939;43.596;1.320;2024-02-15T15:08:26;16.10;99.90
27506;DHT22;14939;43.596;1.320;2024-02-15T15:11:11;16.10;99.90
27506;DHT22;14939;43.596;1.320;2024-02-15T15:13:55;15.90;99.90
27506;DHT22;14939;43.596;1.320;2024-02-15T15:16:21;15.80;99.90
27506;DHT22;14939;43.596;1.320;2024-02-15T15:18:49;15.70;99.90
27506;DHT22;14939;43.596;1.320;2024-02-15T15:21:21;15.70;99.90
27506;DHT22;14939;43.596;1.320;2024-02-15T15:23:48;15.90;99.90
27506;DHT22;14939;43.596;1.320;2024-02-15T15:26:20;15.90;99.90
27506;DHT22;14939;43.596;1.320;2024-02-15T15:28:47;16.00;99.90
27506;DHT22;14939;43.596;1.320;2024-02-15T15:31:13;16.10;99.90
27506;DHT22;14939;43.596;1.320;2024-02-15T15:33:41;16.10;99.90
27506;DHT22;14939;43.596;1.320;2024-02-15T15:36:07;16.00;99.90
27506;DHT22;14939;43.596;1.320;2024-02-15T15:38:32;15.90;99.90
27506;DHT22;14939;43.596;1.320;2024-02-15T15:40:58;15.80;99.90
27506;DHT22;14939;43.596;1.320;2024-02-15T15:43:24;15.70;99.90
27506;DHT22;14939;43.596;1.320;2024-02-15T15:45:50;15.70;99.90